createdAt,value
2022-11-24T00:01:07.095Z,80.27
2022-11-24T00:03:34.100Z,80.64
2022-11-24T00:06:07.689Z,79.86
2022-11-24T00:08:35.709Z,80.82
2022-11-24T00:11:04.238Z,80.71
2022-11-24T00:13:31.069Z,79.64
2022-11-24T00:16:05.545Z,80.36
2022-11-24T00:18:32.412Z,80.24
2022-11-24T00:20:59.307Z,80.07
2022-11-24T00:23:26.864Z,80.30
2022-11-24T00:25:53.757Z,80.76
2022-11-24T00:28:20.569Z,80.56
2022-11-24T00:30:47.441Z,80.53
2022-11-24T00:33:14.303Z,79.69
2022-11-24T00:35:41.134Z,79.44
2022-11-24T00:38:08.003Z,80.21
2022-11-24T00:40:35.237Z,80.28
2022-11-24T00:43:02.137Z,80.17
2022-11-24T00:45:28.961Z,79.79
2022-11-24T00:47:55.805Z,80.61
2022-11-24T00:50:22.614Z,80.62
2022-11-24T00:52:49.431Z,81.09
2022-11-24T00:55:16.379Z,80.22
2022-11-24T00:57:43.216Z,80.44
2022-11-24T01:00:10.416Z,79.85
2022-11-24T01:02:37.355Z,79.90
2022-11-24T01:05:04.511Z,80.56
2022-11-24T01:07:31.607Z,80.39
2022-11-24T01:09:58.441Z,80.02
2022-11-24T01:12:25.324Z,80.42
2022-11-24T01:14:52.258Z,80.03
2022-11-24T01:17:19.172Z,79.88
2022-11-24T01:19:49.239Z,80.63
2022-11-24T01:22:16.311Z,79.93
2022-11-24T01:24:43.354Z,80.44
2022-11-24T01:27:10.245Z,81.08
2022-11-24T01:29:37.029Z,81.23
2022-11-24T01:32:04.064Z,81.93
2022-11-24T01:34:31.086Z,81.32
2022-11-24T01:36:58.185Z,81.05
2022-11-24T01:39:25.001Z,80.64
2022-11-24T01:41:52.837Z,80.15
2022-11-24T01:44:25.893Z,80.39
2022-11-24T01:47:19.023Z,81.08
2022-11-24T01:49:56.201Z,81.65
2022-11-24T01:52:29.361Z,82.34
2022-11-24T01:55:01.940Z,82.39
2022-11-24T01:57:38.453Z,81.97
2022-11-24T02:00:10.321Z,81.65
2022-11-24T02:02:44.980Z,81.29
2022-11-24T02:05:21.433Z,80.96
2022-11-24T02:07:49.261Z,81.46
2022-11-24T02:10:17.120Z,81.77
2022-11-24T02:12:47.623Z,81.02
2022-11-24T02:15:15.726Z,81.59
2022-11-24T02:17:42.577Z,80.96
2022-11-24T02:20:11.125Z,81.21
2022-11-24T02:23:03.454Z,81.62
2022-11-24T02:25:52.187Z,81.41
2022-11-24T02:28:22.466Z,81.98
2022-11-24T02:30:50.598Z,81.45
2022-11-24T02:33:18.685Z,81.78
2022-11-24T02:35:45.533Z,81.90
2022-11-24T02:38:13.776Z,82.30
2022-11-24T02:40:45.566Z,82.09
2022-11-24T02:43:16.628Z,82.09
2022-11-24T02:45:43.493Z,82.63
2022-11-24T02:48:10.301Z,82.23
2022-11-24T02:50:37.409Z,83.10
2022-11-24T02:53:04.279Z,82.44
2022-11-24T02:55:31.203Z,81.76
2022-11-24T02:57:58.035Z,82.04
2022-11-24T03:00:24.898Z,82.02
2022-11-24T03:02:51.794Z,81.63
2022-11-24T03:05:18.718Z,81.44
2022-11-24T03:07:45.579Z,81.21
2022-11-24T03:10:12.553Z,81.51
2022-11-24T03:12:39.390Z,81.33
2022-11-24T03:15:06.665Z,81.50
2022-11-24T03:17:33.595Z,82.08
2022-11-24T03:20:04.913Z,82.72
2022-11-24T03:22:32.313Z,81.93
2022-11-24T03:24:59.435Z,82.27
2022-11-24T03:27:26.336Z,81.07
2022-11-24T03:29:53.128Z,81.23
2022-11-24T03:32:20.002Z,80.85
2022-11-24T03:34:47.369Z,81.61
2022-11-24T03:37:14.589Z,81.45
2022-11-24T03:39:41.483Z,82.00
2022-11-24T03:42:08.451Z,81.19
2022-11-24T03:44:35.487Z,81.89
2022-11-24T03:47:02.462Z,82.34
2022-11-24T03:49:29.346Z,82.30
2022-11-24T03:51:56.251Z,81.70
2022-11-24T03:54:23.527Z,81.37
2022-11-24T03:56:50.649Z,82.09
2022-11-24T03:59:18.092Z,81.42
2022-11-24T04:01:45.629Z,81.94
2022-11-24T04:04:13.331Z,81.38
2022-11-24T04:06:40.958Z,81.45
2022-11-24T04:09:08.119Z,81.50
2022-11-24T04:11:53.456Z,81.56
2022-11-24T04:14:21.094Z,81.93
2022-11-24T04:16:48.071Z,81.78
2022-11-24T04:19:15.019Z,80.91
2022-11-24T04:21:42.008Z,81.05
2022-11-24T04:24:08.974Z,81.33
2022-11-24T04:26:35.811Z,80.99
2022-11-24T04:29:02.636Z,81.71
2022-11-24T04:31:29.553Z,80.95
2022-11-24T04:33:56.421Z,80.46
2022-11-24T04:36:23.301Z,81.29
2022-11-24T04:39:22.784Z,82.37
2022-11-24T04:41:39.867Z,82.65
2022-11-24T04:44:06.702Z,83.61
2022-11-24T04:46:33.637Z,83.33
2022-11-24T04:49:01.324Z,82.52
2022-11-24T04:51:28.220Z,82.78
2022-11-24T04:53:55.043Z,83.40
2022-11-24T04:56:21.960Z,83.56
2022-11-24T04:58:49.470Z,83.75
2022-11-24T05:01:16.406Z,83.81
2022-11-24T05:03:43.278Z,83.62
2022-11-24T05:06:10.178Z,83.71
2022-11-24T05:08:37.152Z,83.39
2022-11-24T05:11:06.214Z,84.02
2022-11-24T05:13:33.870Z,83.49
2022-11-24T05:16:01.905Z,82.48
2022-11-24T05:18:29.032Z,83.35
2022-11-24T05:20:56.259Z,82.79
2022-11-24T05:23:23.198Z,83.47
2022-11-24T05:25:50.614Z,83.03
2022-11-24T05:28:18.133Z,82.96
2022-11-24T05:30:45.986Z,82.31
2022-11-24T05:33:24.651Z,81.79
2022-11-24T05:35:51.753Z,82.42
2022-11-24T05:38:18.982Z,82.04
2022-11-24T05:40:45.867Z,82.48
2022-11-24T05:43:17.183Z,82.29
2022-11-24T05:45:45.055Z,82.50
2022-11-24T05:48:14.419Z,82.62
2022-11-24T05:50:41.402Z,81.15
2022-11-24T05:53:11.423Z,81.39
2022-11-24T05:55:39.116Z,81.15
2022-11-24T05:58:07.961Z,81.30
2022-11-24T06:00:35.928Z,81.19
2022-11-24T06:03:03.180Z,81.62
2022-11-24T06:05:30.427Z,80.67
2022-11-24T06:07:59.912Z,80.44
2022-11-24T06:10:27.444Z,80.16
2022-11-24T06:12:54.401Z,80.24
2022-11-24T06:15:21.355Z,79.19
2022-11-24T06:17:55.868Z,78.95
2022-11-24T06:20:28.303Z,78.49
2022-11-24T06:22:59.279Z,77.57
2022-11-24T06:25:26.445Z,76.52
2022-11-24T06:27:53.280Z,73.47
2022-11-24T06:30:20.173Z,70.91
2022-11-24T06:32:49.674Z,69.25
2022-11-24T06:35:17.393Z,67.78
2022-11-24T06:37:45.886Z,66.79
2022-11-24T06:40:12.979Z,65.60
2022-11-24T06:42:39.882Z,65.25
2022-11-24T06:45:09.365Z,64.92
2022-11-24T06:47:37.175Z,63.73
2022-11-24T06:50:04.705Z,62.92
2022-11-24T06:52:31.568Z,61.73
2022-11-24T06:54:58.516Z,61.47
2022-11-24T06:57:26.373Z,60.84
2022-11-24T06:59:53.263Z,60.68
2022-11-24T07:02:20.092Z,59.26
2022-11-24T07:04:46.974Z,58.83
2022-11-24T07:07:13.830Z,57.93
2022-11-24T07:09:40.889Z,58.21
2022-11-24T07:12:07.873Z,57.43
2022-11-24T07:14:35.052Z,57.20
2022-11-24T07:17:02.743Z,58.18
2022-11-24T07:19:29.637Z,58.09
2022-11-24T07:21:56.792Z,56.67
2022-11-24T07:24:23.635Z,55.33
2022-11-24T07:26:50.702Z,55.76
2022-11-24T07:29:17.505Z,54.77
2022-11-24T07:31:46.141Z,54.38
2022-11-24T07:34:14.926Z,54.93
2022-11-24T07:36:45.567Z,55.35
2022-11-24T07:39:12.547Z,56.33
2022-11-24T07:41:39.449Z,58.09
2022-11-24T07:44:06.396Z,59.57
2022-11-24T07:46:33.267Z,60.30
2022-11-24T07:49:07.785Z,58.89
2022-11-24T07:51:39.316Z,57.57
2022-11-24T07:54:06.177Z,56.84
2022-11-24T07:56:33.062Z,57.92
2022-11-24T07:59:00.824Z,58.14
2022-11-24T08:01:27.766Z,59.47
2022-11-24T08:03:55.146Z,59.57
2022-11-24T08:06:27.345Z,59.49
2022-11-24T08:08:57.439Z,60.59
2022-11-24T08:11:25.322Z,60.37
2022-11-24T08:13:52.235Z,62.05
2022-11-24T08:16:20.529Z,62.32
2022-11-24T08:18:52.058Z,64.04
2022-11-24T08:21:19.231Z,63.79
2022-11-24T08:23:46.518Z,63.23
2022-11-24T08:26:17.725Z,64.67
2022-11-24T08:28:45.969Z,66.19
2022-11-24T08:31:17.100Z,68.11
2022-11-24T08:33:44.208Z,69.68
2022-11-24T08:36:14.151Z,66.73
2022-11-24T08:38:41.723Z,64.79
2022-11-24T08:41:15.012Z,62.10
2022-11-24T08:43:42.582Z,60.45
2022-11-24T08:46:13.763Z,59.58
2022-11-24T08:48:41.748Z,59.06
2022-11-24T08:51:20.716Z,58.66
2022-11-24T08:53:48.101Z,60.54
2022-11-24T08:56:15.493Z,59.73
2022-11-24T08:58:42.902Z,58.47
2022-11-24T09:01:13.222Z,58.81
2022-11-24T09:03:44.933Z,60.08
2022-11-24T09:06:19.333Z,60.71
2022-11-24T09:08:46.158Z,59.47
2022-11-24T09:11:15.294Z,58.45
2022-11-24T09:13:42.909Z,58.53
2022-11-24T09:16:12.733Z,58.15
2022-11-24T09:18:40.823Z,56.80
2022-11-24T09:21:09.602Z,54.91
2022-11-24T09:23:37.282Z,54.84
2022-11-24T09:26:13.236Z,54.75
2022-11-24T09:28:41.165Z,54.04
2022-11-24T09:31:11.569Z,53.30
2022-11-24T09:33:39.514Z,54.67
2022-11-24T09:36:07.062Z,56.24
2022-11-24T09:38:34.070Z,58.22
2022-11-24T09:41:34.673Z,58.86
2022-11-24T09:44:20.003Z,61.38
2022-11-24T09:47:14.627Z,62.82
2022-11-24T09:49:58.187Z,62.75
2022-11-24T09:52:45.329Z,65.42
2022-11-24T09:55:31.692Z,62.11
2022-11-24T09:58:24.371Z,59.37
2022-11-24T10:00:53.708Z,57.22
2022-11-24T10:03:53.704Z,55.38
2022-11-24T10:06:26.164Z,54.48
2022-11-24T10:09:11.784Z,53.55
2022-11-24T10:11:46.998Z,52.56
2022-11-24T10:14:46.083Z,54.16
2022-11-24T10:17:18.920Z,53.19
2022-11-24T10:20:08.746Z,52.72
2022-11-24T10:23:02.085Z,52.37
2022-11-24T10:25:47.597Z,51.67
2022-11-24T10:28:15.917Z,51.06
2022-11-24T10:30:43.120Z,51.49
2022-11-24T10:33:28.808Z,51.30
2022-11-24T10:36:31.639Z,52.72
2022-11-24T10:39:39.757Z,53.04
2022-11-24T10:42:26.260Z,51.91
2022-11-24T10:45:22.851Z,50.96
2022-11-24T10:47:50.706Z,48.03
2022-11-24T10:50:24.150Z,46.98
2022-11-24T10:52:50.950Z,47.23
2022-11-24T10:55:17.925Z,49.48
2022-11-24T10:57:45.374Z,48.37
2022-11-24T11:00:34.076Z,45.90
2022-11-24T11:03:33.315Z,46.17
2022-11-24T11:06:00.609Z,45.59
2022-11-24T11:08:30.622Z,44.70
2022-11-24T11:11:21.392Z,45.13
2022-11-24T11:14:01.712Z,46.05
2022-11-24T11:16:51.579Z,46.41
2022-11-24T11:19:58.467Z,45.71
2022-11-24T11:22:30.742Z,43.93
2022-11-24T11:25:03.268Z,44.18
2022-11-24T11:27:30.381Z,44.14
2022-11-24T11:35:52.520Z,42.33
2022-11-24T11:38:20.209Z,42.84
2022-11-24T11:40:50.561Z,43.23
2022-11-24T11:43:32.070Z,41.87
2022-11-24T11:46:15.598Z,41.72
2022-11-24T11:48:46.782Z,43.75
2022-11-24T11:51:45.631Z,42.41
2022-11-24T11:54:21.743Z,43.75
2022-11-24T11:56:55.076Z,44.06
2022-11-24T11:59:28.035Z,45.07
2022-11-24T12:02:32.458Z,44.42
2022-11-24T12:05:24.145Z,43.96
2022-11-24T12:08:09.214Z,45.90
2022-11-24T12:10:56.927Z,46.48
2022-11-24T12:13:41.721Z,47.34
2022-11-24T12:16:30.958Z,47.55
2022-11-24T12:19:05.870Z,48.04
2022-11-24T12:22:07.464Z,47.55
2022-11-24T12:24:46.322Z,49.35
2022-11-24T12:27:38.212Z,47.93
2022-11-24T12:30:13.179Z,47.98
2022-11-24T12:32:58.361Z,48.85
2022-11-24T12:35:42.825Z,48.85
2022-11-24T12:38:55.747Z,49.47
2022-11-24T12:41:47.029Z,49.27
2022-11-24T12:44:35.516Z,50.67
2022-11-24T12:47:23.892Z,51.14
2022-11-24T12:50:12.530Z,51.55
2022-11-24T12:52:57.214Z,51.58
2022-11-24T12:55:27.825Z,51.22
2022-11-24T12:58:09.348Z,52.37
2022-11-24T13:01:14.673Z,52.20
2022-11-24T13:03:58.166Z,47.74
2022-11-24T13:06:49.439Z,44.90
2022-11-24T13:09:17.141Z,50.88
2022-11-24T13:11:50.997Z,52.32
2022-11-24T13:14:23.363Z,52.09
2022-11-24T13:19:49.257Z,52.09
2022-11-24T13:22:24.458Z,51.29
2022-11-24T13:25:20.428Z,52.00
2022-11-24T13:27:48.743Z,53.35
2022-11-24T13:30:35.820Z,53.41
2022-11-24T13:33:27.358Z,53.81
2022-11-24T13:36:04.252Z,53.09
2022-11-24T13:38:46.471Z,54.35
2022-11-24T13:41:31.817Z,52.97
2022-11-24T13:44:13.793Z,53.25
2022-11-24T13:47:04.768Z,53.81
2022-11-24T13:49:40.036Z,54.81
2022-11-24T13:52:44.235Z,54.70
2022-11-24T13:55:14.183Z,54.16
2022-11-24T13:57:44.305Z,56.08
2022-11-24T14:00:35.187Z,55.10
2022-11-24T14:03:23.101Z,54.33
2022-11-24T14:05:53.510Z,54.50
2022-11-24T14:08:34.182Z,54.97
2022-11-24T14:11:02.759Z,55.19
2022-11-24T14:13:34.171Z,55.90
2022-11-24T14:16:04.622Z,55.54
2022-11-24T14:18:32.909Z,56.29
2022-11-24T14:21:15.865Z,56.94
2022-11-24T14:23:50.463Z,55.83
2022-11-24T14:26:23.112Z,55.81
2022-11-24T14:28:50.578Z,56.01
2022-11-24T14:31:25.984Z,56.85
2022-11-24T14:34:13.495Z,55.83
2022-11-24T14:36:41.169Z,57.89
2022-11-24T14:39:13.956Z,57.79
2022-11-24T14:41:43.332Z,56.90
2022-11-24T14:44:20.409Z,57.57
2022-11-24T14:46:48.250Z,57.64
2022-11-24T14:49:21.217Z,57.87
2022-11-24T14:52:00.674Z,57.02
2022-11-24T14:54:28.967Z,57.24
2022-11-24T14:57:04.236Z,57.60
2022-11-24T14:59:38.124Z,56.52
2022-11-24T15:02:41.483Z,57.30
2022-11-24T15:05:08.589Z,59.63
2022-11-24T15:07:38.835Z,55.77
2022-11-24T15:10:18.241Z,56.71
2022-11-24T15:12:54.019Z,55.00
2022-11-24T15:15:24.193Z,55.96
2022-11-24T15:17:57.614Z,56.43
2022-11-24T15:20:32.103Z,56.53
2022-11-24T15:23:25.510Z,57.66
2022-11-24T15:25:54.525Z,57.24
2022-11-24T15:28:27.868Z,57.42
2022-11-24T15:30:59.374Z,56.42
2022-11-24T15:33:27.298Z,57.04
2022-11-24T15:35:54.197Z,55.97
2022-11-24T15:38:22.038Z,55.97
2022-11-24T15:40:52.018Z,56.35
2022-11-24T15:43:32.383Z,55.79
2022-11-24T15:46:00.368Z,56.00
2022-11-24T15:48:28.357Z,55.45
2022-11-24T15:50:57.309Z,55.41
2022-11-24T15:53:34.951Z,53.83
2022-11-24T15:56:03.905Z,53.97
2022-11-24T15:58:30.781Z,55.96
2022-11-24T16:00:57.767Z,52.09
2022-11-24T16:03:46.172Z,55.06
2022-11-24T16:06:24.292Z,55.31
2022-11-24T16:08:53.290Z,53.76
2022-11-24T16:11:20.732Z,55.40
2022-11-24T16:13:52.459Z,54.88
2022-11-24T16:16:21.615Z,53.57
2022-11-24T16:18:48.557Z,54.74
2022-11-24T16:21:15.604Z,54.61
2022-11-24T16:23:42.630Z,55.03
2022-11-24T16:26:10.361Z,55.43
2022-11-24T16:28:37.328Z,55.36
2022-11-24T16:31:04.352Z,55.33
2022-11-24T16:33:31.338Z,56.37
2022-11-24T16:35:58.740Z,55.63
2022-11-24T16:38:25.676Z,55.61
2022-11-24T16:40:54.565Z,57.43
2022-11-24T16:43:21.666Z,56.69
2022-11-24T16:46:06.916Z,56.29
2022-11-24T16:48:37.224Z,56.02
2022-11-24T16:51:10.216Z,56.19
2022-11-24T16:53:38.018Z,57.53
2022-11-24T16:56:05.620Z,57.47
2022-11-24T16:58:32.856Z,57.08
2022-11-24T17:01:07.554Z,56.63
2022-11-24T17:03:37.509Z,56.06
2022-11-24T17:06:10.076Z,56.57
2022-11-24T17:08:38.453Z,57.23
2022-11-24T17:11:27.367Z,56.65
2022-11-24T17:13:55.890Z,56.57
2022-11-24T17:16:24.692Z,56.60
2022-11-24T17:18:52.125Z,55.86
2022-11-24T17:21:24.655Z,56.03
2022-11-24T17:24:05.314Z,56.97
2022-11-24T17:26:33.325Z,56.10
2022-11-24T17:29:00.264Z,56.56
2022-11-24T17:31:28.526Z,58.73
2022-11-24T17:33:58.457Z,56.66
2022-11-24T17:36:25.696Z,56.73
2022-11-24T17:38:52.881Z,57.98
2022-11-24T17:41:20.489Z,57.50
2022-11-24T17:43:51.802Z,57.10
2022-11-24T17:46:19.121Z,56.25
2022-11-24T17:48:47.068Z,57.60
2022-11-24T17:51:16.510Z,56.78
2022-11-24T17:53:46.018Z,56.23
2022-11-24T17:56:15.421Z,56.95
2022-11-24T17:58:43.560Z,55.30
2022-11-24T18:01:11.984Z,55.97
2022-11-24T18:03:42.156Z,55.20
2022-11-24T18:06:11.959Z,55.41
2022-11-24T18:08:40.718Z,55.37
2022-11-24T18:11:13.644Z,55.88
2022-11-24T18:13:56.685Z,54.99
2022-11-24T18:16:28.398Z,56.42
2022-11-24T18:19:07.786Z,55.85
2022-11-24T18:21:35.119Z,56.61
2022-11-24T18:24:02.169Z,56.61
2022-11-24T18:26:29.084Z,56.21
2022-11-24T18:28:56.068Z,56.52
2022-11-24T18:31:23.508Z,56.22
2022-11-24T18:33:50.440Z,56.70
2022-11-24T18:36:19.415Z,54.90
2022-11-24T18:38:46.286Z,54.64
2022-11-24T18:41:14.869Z,53.10
2022-11-24T18:43:42.592Z,54.13
2022-11-24T18:46:15.801Z,54.03
2022-11-24T18:48:44.136Z,52.90
2022-11-24T18:51:15.417Z,54.60
2022-11-24T18:53:44.830Z,54.36
2022-11-24T18:56:16.877Z,52.21
2022-11-24T18:58:44.407Z,52.47
2022-11-24T19:01:16.946Z,52.50
2022-11-24T19:03:48.700Z,52.31
2022-11-24T19:06:24.836Z,53.21
2022-11-24T19:08:53.795Z,52.91
2022-11-24T19:11:23.686Z,53.18
2022-11-24T19:13:50.619Z,52.17
2022-11-24T19:16:19.180Z,52.13
2022-11-24T19:18:51.983Z,54.46
2022-11-24T19:21:21.404Z,52.26
2022-11-24T19:23:48.432Z,52.56
2022-11-24T19:26:15.333Z,52.50
2022-11-24T19:28:42.356Z,52.14
2022-11-24T19:31:11.885Z,52.66
2022-11-24T19:33:39.432Z,54.23
2022-11-24T19:36:13.711Z,52.60
2022-11-24T19:38:41.372Z,51.17
2022-11-24T19:41:13.635Z,52.85
2022-11-24T19:43:41.454Z,52.01
2022-11-24T19:46:10.840Z,52.05
2022-11-24T19:48:43.522Z,51.99
2022-11-24T19:51:15.834Z,52.98
2022-11-24T19:53:43.705Z,52.04
2022-11-24T19:56:15.072Z,52.61
2022-11-24T19:58:42.544Z,52.15
2022-11-24T20:01:12.860Z,51.98
2022-11-24T20:03:41.156Z,52.10
2022-11-24T20:06:10.794Z,52.24
2022-11-24T20:08:38.768Z,52.11
2022-11-24T20:11:14.537Z,53.59
2022-11-24T20:13:43.922Z,52.48
2022-11-24T20:16:19.778Z,52.38
2022-11-24T20:18:47.825Z,52.58
2022-11-24T20:21:17.263Z,52.43
2022-11-24T20:23:45.956Z,52.54
2022-11-24T20:26:15.799Z,52.08
2022-11-24T20:28:43.271Z,52.40
2022-11-24T20:31:13.516Z,53.33
2022-11-24T20:33:41.625Z,52.43
2022-11-24T20:36:12.432Z,53.13
2022-11-24T20:38:40.530Z,53.35
2022-11-24T20:41:09.383Z,53.48
2022-11-24T20:43:37.763Z,54.01
2022-11-24T20:46:07.309Z,53.03
2022-11-24T20:48:35.482Z,53.88
2022-11-24T20:51:07.963Z,52.50
2022-11-24T20:53:35.862Z,54.37
2022-11-24T20:56:06.388Z,53.35
2022-11-24T20:58:34.798Z,53.36
2022-11-24T21:01:09.710Z,52.81
2022-11-24T21:03:42.766Z,53.63
2022-11-24T21:06:11.811Z,53.20
2022-11-24T21:08:40.260Z,53.99
2022-11-24T21:11:08.505Z,53.81
2022-11-24T21:13:36.612Z,53.76
2022-11-24T21:16:16.737Z,53.75
2022-11-24T21:18:45.342Z,52.87
2022-11-24T21:21:13.786Z,52.21
2022-11-24T21:23:41.031Z,53.00
2022-11-24T21:26:14.825Z,51.36
2022-11-24T21:28:44.941Z,52.27
2022-11-24T21:31:14.159Z,54.95
2022-11-24T21:33:46.426Z,50.95
2022-11-24T21:36:16.458Z,51.57
2022-11-24T21:38:44.204Z,51.91
2022-11-24T21:41:12.081Z,52.70
2022-11-24T21:43:38.946Z,52.08
2022-11-24T21:46:07.879Z,51.07
2022-11-24T21:48:36.123Z,51.14
2022-11-24T21:51:05.699Z,51.06
2022-11-24T21:53:37.097Z,51.00
2022-11-24T21:56:07.114Z,53.59
2022-11-24T21:58:34.152Z,51.30
2022-11-24T22:01:05.666Z,50.91
2022-11-24T22:03:32.594Z,52.26
2022-11-24T22:06:00.502Z,50.28
2022-11-24T22:08:29.266Z,52.03
2022-11-24T22:11:04.793Z,50.60
2022-11-24T22:13:32.212Z,50.58
2022-11-24T22:16:01.096Z,52.22
2022-11-24T22:18:31.778Z,50.61
2022-11-24T22:20:59.277Z,50.86
2022-11-24T22:23:26.317Z,50.82
2022-11-24T22:25:53.161Z,50.28
2022-11-24T22:28:20.114Z,50.87
2022-11-24T22:30:46.952Z,50.40
2022-11-24T22:33:14.113Z,49.55
2022-11-24T22:35:41.056Z,51.20
2022-11-24T22:38:07.892Z,49.98
2022-11-24T22:40:34.793Z,50.34
2022-11-24T22:43:01.579Z,50.36
2022-11-24T22:45:28.451Z,49.88
2022-11-24T22:47:55.298Z,49.97
2022-11-24T22:50:22.146Z,49.34
2022-11-24T22:52:50.345Z,50.08
2022-11-24T22:55:17.148Z,50.33
2022-11-24T22:57:48.063Z,49.38
2022-11-24T23:00:16.305Z,50.16
2022-11-24T23:02:43.293Z,51.22
2022-11-24T23:05:10.489Z,50.23
2022-11-24T23:07:37.530Z,50.15
2022-11-24T23:10:04.555Z,50.34
2022-11-24T23:12:31.420Z,51.12
2022-11-24T23:14:58.274Z,50.88
2022-11-24T23:17:25.114Z,50.31
2022-11-24T23:19:52.113Z,50.49
2022-11-24T23:22:19.023Z,49.36
2022-11-24T23:24:45.896Z,49.39
2022-11-24T23:27:12.702Z,49.62
2022-11-24T23:29:40.282Z,49.58
2022-11-24T23:32:07.226Z,50.11
2022-11-24T23:34:34.476Z,50.36
2022-11-24T23:37:01.522Z,50.14
2022-11-24T23:39:28.718Z,50.07
2022-11-24T23:41:55.664Z,50.30
2022-11-24T23:44:22.549Z,49.88
2022-11-24T23:46:49.584Z,50.15
2022-11-24T23:49:16.407Z,49.71
2022-11-24T23:51:43.285Z,49.98
2022-11-24T23:54:10.144Z,49.56
2022-11-24T23:56:37.107Z,50.03
2022-11-24T23:59:05.163Z,49.98
